createdAt,value
2022-11-16T00:00:24.453Z,12.20
2022-11-16T00:01:28.182Z,12.20
2022-11-16T00:02:29.944Z,12.20
2022-11-16T00:03:33.131Z,12.20
2022-11-16T00:04:34.789Z,12.20
2022-11-16T00:05:36.449Z,12.20
2022-11-16T00:06:38.222Z,12.30
2022-11-16T00:07:39.991Z,12.30
2022-11-16T00:08:45.264Z,12.30
2022-11-16T00:09:47.149Z,12.30
2022-11-16T00:10:48.846Z,12.30
2022-11-16T00:11:53.407Z,12.30
2022-11-16T00:12:54.979Z,12.30
2022-11-16T00:13:56.588Z,12.30
2022-11-16T00:14:58.196Z,12.30
2022-11-16T00:16:00.540Z,12.20
2022-11-16T00:17:03.009Z,12.30
2022-11-16T00:18:04.703Z,12.30
2022-11-16T00:19:07.361Z,12.30
2022-11-16T00:20:09.531Z,12.30
2022-11-16T00:21:11.347Z,12.30
2022-11-16T00:22:13.073Z,12.40
2022-11-16T00:23:14.662Z,12.40
2022-11-16T00:24:18.185Z,12.40
2022-11-16T00:25:19.798Z,12.50
2022-11-16T00:26:24.144Z,12.40
2022-11-16T00:27:25.766Z,12.40
2022-11-16T00:28:28.459Z,12.40
2022-11-16T00:29:30.113Z,12.30
2022-11-16T00:30:31.750Z,12.40
2022-11-16T00:31:33.394Z,12.40
2022-11-16T00:32:34.960Z,12.40
2022-11-16T00:33:36.661Z,12.40
2022-11-16T00:34:39.640Z,12.40
2022-11-16T00:35:41.328Z,12.40
2022-11-16T00:36:43.307Z,12.40
2022-11-16T00:37:44.952Z,12.40
2022-11-16T00:38:47.001Z,12.40
2022-11-16T00:39:48.641Z,12.40
2022-11-16T00:40:50.426Z,12.40
2022-11-16T00:41:52.063Z,12.40
2022-11-16T00:42:53.667Z,12.40
2022-11-16T00:43:55.246Z,12.40
2022-11-16T00:44:56.873Z,12.40
2022-11-16T00:45:58.501Z,12.40
2022-11-16T00:47:00.411Z,12.30
2022-11-16T00:48:02.004Z,12.30
2022-11-16T00:49:05.507Z,12.30
2022-11-16T00:50:07.347Z,12.30
2022-11-16T00:51:09.014Z,12.30
2022-11-16T00:52:10.625Z,12.30
2022-11-16T00:53:14.198Z,12.30
2022-11-16T00:54:15.813Z,12.30
2022-11-16T00:55:17.718Z,12.30
2022-11-16T00:56:19.534Z,12.30
2022-11-16T00:57:21.538Z,12.30
2022-11-16T00:58:23.277Z,12.30
2022-11-16T00:59:24.871Z,12.30
2022-11-16T01:00:26.712Z,12.30
2022-11-16T01:01:28.585Z,12.30
2022-11-16T01:02:30.292Z,12.30
2022-11-16T01:03:32.264Z,12.40
2022-11-16T01:04:33.901Z,12.30
2022-11-16T01:05:35.615Z,12.30
2022-11-16T01:06:37.245Z,12.30
2022-11-16T01:07:40.240Z,12.30
2022-11-16T01:08:43.146Z,12.30
2022-11-16T01:09:44.745Z,12.30
2022-11-16T01:10:46.348Z,12.30
2022-11-16T01:12:06.626Z,12.30
2022-11-16T01:13:08.252Z,12.30
2022-11-16T01:14:10.723Z,12.20
2022-11-16T01:15:12.848Z,12.20
2022-11-16T01:16:19.288Z,12.20
2022-11-16T01:17:20.962Z,12.20
2022-11-16T01:18:22.758Z,12.20
2022-11-16T01:19:24.492Z,12.20
2022-11-16T01:20:28.573Z,12.20
2022-11-16T01:21:39.158Z,12.20
2022-11-16T01:22:41.458Z,12.20
2022-11-16T01:23:43.102Z,12.20
2022-11-16T01:24:46.927Z,12.20
2022-11-16T01:26:01.613Z,12.20
2022-11-16T01:27:03.342Z,12.20
2022-11-16T01:28:05.045Z,12.20
2022-11-16T01:29:06.771Z,12.10
2022-11-16T01:30:10.795Z,12.10
2022-11-16T01:31:12.792Z,12.00
2022-11-16T01:32:14.535Z,12.00
2022-11-16T01:33:16.133Z,12.00
2022-11-16T01:34:18.077Z,12.00
2022-11-16T01:35:19.796Z,12.00
2022-11-16T01:36:21.418Z,12.00
2022-11-16T01:37:23.048Z,12.00
2022-11-16T01:38:29.374Z,11.90
2022-11-16T01:39:31.574Z,12.00
2022-11-16T01:40:33.184Z,11.90
2022-11-16T01:41:34.882Z,11.90
2022-11-16T01:42:36.472Z,11.90
2022-11-16T01:43:49.942Z,11.90
2022-11-16T01:44:59.038Z,11.90
2022-11-16T01:46:00.713Z,11.90
2022-11-16T01:47:08.666Z,11.90
2022-11-16T01:48:23.401Z,11.80
2022-11-16T01:49:28.302Z,11.80
2022-11-16T01:50:30.022Z,11.90
2022-11-16T01:51:32.382Z,11.80
2022-11-16T01:52:36.628Z,11.90
2022-11-16T01:53:38.344Z,11.80
2022-11-16T01:54:43.819Z,11.80
2022-11-16T01:55:47.568Z,11.80
2022-11-16T01:56:50.860Z,11.80
2022-11-16T01:57:52.854Z,11.80
2022-11-16T01:58:54.543Z,11.80
2022-11-16T01:59:59.684Z,11.80
2022-11-16T02:01:01.391Z,11.80
2022-11-16T02:02:03.566Z,11.80
2022-11-16T02:03:05.166Z,11.80
2022-11-16T02:04:06.851Z,11.80
2022-11-16T02:05:12.964Z,11.80
2022-11-16T02:06:58.588Z,11.80
2022-11-16T02:08:56.605Z,11.80
2022-11-16T02:10:31.092Z,11.80
2022-11-16T02:11:47.689Z,11.70
2022-11-16T02:13:05.050Z,11.70
2022-11-16T02:14:17.120Z,11.70
2022-11-16T02:15:25.989Z,11.70
2022-11-16T02:17:01.897Z,11.70
2022-11-16T02:18:22.255Z,11.70
2022-11-16T02:20:11.522Z,11.70
2022-11-16T02:21:33.786Z,11.60
2022-11-16T02:22:54.277Z,11.60
2022-11-16T02:24:24.092Z,11.70
2022-11-16T02:26:04.170Z,11.60
2022-11-16T02:27:13.988Z,11.70
2022-11-16T02:28:20.925Z,11.70
2022-11-16T02:29:38.075Z,11.70
2022-11-16T02:30:44.985Z,11.60
2022-11-16T02:31:53.838Z,11.70
2022-11-16T02:33:08.881Z,11.60
2022-11-16T02:34:14.663Z,11.70
2022-11-16T02:35:38.895Z,11.70
2022-11-16T02:36:43.232Z,11.70
2022-11-16T02:37:52.680Z,11.60
2022-11-16T02:39:05.785Z,11.60
2022-11-16T02:40:11.543Z,11.60
2022-11-16T02:41:17.921Z,11.60
2022-11-16T02:42:30.200Z,11.70
2022-11-16T02:43:36.561Z,11.70
2022-11-16T02:44:43.909Z,11.70
2022-11-16T02:45:49.641Z,11.60
2022-11-16T02:47:04.975Z,11.60
2022-11-16T02:48:22.564Z,11.60
2022-11-16T02:49:26.402Z,11.60
2022-11-16T02:50:29.716Z,11.60
2022-11-16T02:51:33.860Z,11.60
2022-11-16T02:52:36.912Z,11.60
2022-11-16T02:53:42.944Z,11.50
2022-11-16T02:54:44.548Z,11.50
2022-11-16T02:55:46.138Z,11.50
2022-11-16T02:57:02.616Z,11.40
2022-11-16T02:58:09.759Z,11.40
2022-11-16T02:59:16.494Z,11.40
2022-11-16T03:00:23.599Z,11.40
2022-11-16T03:01:33.731Z,11.40
2022-11-16T03:02:54.589Z,11.40
2022-11-16T03:04:16.611Z,11.40
2022-11-16T03:05:37.495Z,11.40
2022-11-16T03:06:41.500Z,11.30
2022-11-16T03:07:49.751Z,11.30
2022-11-16T03:09:05.724Z,11.30
2022-11-16T03:10:07.827Z,11.30
2022-11-16T03:11:29.859Z,11.30
2022-11-16T03:12:35.279Z,11.20
2022-11-16T03:13:38.004Z,11.20
2022-11-16T03:14:50.483Z,11.20
2022-11-16T03:15:55.255Z,11.20
2022-11-16T03:16:58.037Z,11.20
2022-11-16T03:18:00.564Z,11.20
2022-11-16T03:19:12.404Z,11.10
2022-11-16T03:20:20.591Z,11.20
2022-11-16T03:21:47.836Z,11.10
2022-11-16T03:22:57.098Z,11.10
2022-11-16T03:23:58.865Z,11.10
2022-11-16T03:25:00.799Z,11.10
2022-11-16T03:26:05.904Z,11.10
2022-11-16T03:27:32.001Z,11.10
2022-11-16T03:28:50.357Z,11.10
2022-11-16T03:30:14.719Z,11.00
2022-11-16T03:31:26.899Z,11.00
2022-11-16T03:32:41.166Z,11.00
2022-11-16T03:33:56.065Z,11.00
2022-11-16T03:35:12.140Z,10.90
2022-11-16T03:36:33.471Z,10.90
2022-11-16T03:37:36.872Z,10.90
2022-11-16T03:38:40.718Z,10.90
2022-11-16T03:39:44.090Z,10.90
2022-11-16T03:40:47.420Z,10.90
2022-11-16T03:41:50.578Z,10.90
2022-11-16T03:42:52.618Z,10.80
2022-11-16T03:43:56.333Z,10.80
2022-11-16T03:44:58.783Z,10.80
2022-11-16T03:46:00.741Z,10.80
2022-11-16T03:47:02.591Z,10.80
2022-11-16T03:48:06.083Z,10.70
2022-11-16T03:49:07.779Z,10.80
2022-11-16T03:50:09.976Z,10.80
2022-11-16T03:51:12.397Z,10.80
2022-11-16T03:52:16.170Z,10.80
2022-11-16T03:53:17.916Z,10.80
2022-11-16T03:54:19.647Z,10.80
2022-11-16T03:55:21.392Z,10.80
2022-11-16T03:56:23.147Z,10.80
2022-11-16T03:57:24.762Z,10.80
2022-11-16T03:58:26.351Z,10.80
2022-11-16T03:59:28.009Z,10.70
2022-11-16T04:00:29.739Z,10.80
2022-11-16T04:01:31.598Z,10.80
2022-11-16T04:02:33.224Z,10.80
2022-11-16T04:03:34.828Z,10.80
2022-11-16T04:04:55.432Z,10.80
2022-11-16T04:06:15.862Z,10.80
2022-11-16T04:07:36.104Z,10.70
2022-11-16T04:08:56.527Z,10.70
2022-11-16T04:10:16.886Z,10.70
2022-11-16T04:11:40.540Z,10.70
2022-11-16T04:13:02.897Z,10.70
2022-11-16T04:14:23.833Z,10.70
2022-11-16T04:15:44.316Z,10.70
2022-11-16T04:17:12.163Z,10.70
2022-11-16T04:18:33.041Z,10.70
2022-11-16T04:19:57.907Z,10.70
2022-11-16T04:21:18.935Z,10.70
2022-11-16T04:22:47.487Z,10.70
2022-11-16T04:24:07.846Z,10.70
2022-11-16T04:25:14.626Z,10.70
2022-11-16T04:26:16.401Z,10.80
2022-11-16T04:27:38.798Z,10.70
2022-11-16T04:28:41.200Z,10.70
2022-11-16T04:29:43.196Z,10.70
2022-11-16T04:31:09.631Z,10.70
2022-11-16T04:32:30.159Z,10.70
2022-11-16T04:33:51.334Z,10.70
2022-11-16T04:35:11.864Z,10.80
2022-11-16T04:36:32.302Z,10.80
2022-11-16T04:37:49.253Z,10.70
2022-11-16T04:38:50.829Z,10.80
2022-11-16T04:39:52.501Z,10.70
2022-11-16T04:40:54.106Z,10.70
2022-11-16T04:42:14.384Z,10.70
2022-11-16T04:43:16.063Z,10.70
2022-11-16T04:44:17.894Z,10.70
2022-11-16T04:45:39.852Z,10.70
2022-11-16T04:47:00.375Z,10.60
2022-11-16T04:48:02.182Z,10.60
2022-11-16T04:49:03.808Z,10.60
2022-11-16T04:50:05.877Z,10.50
2022-11-16T04:51:07.470Z,10.50
2022-11-16T04:52:09.233Z,10.50
2022-11-16T04:53:11.525Z,10.60
2022-11-16T04:54:13.154Z,10.50
2022-11-16T04:55:14.831Z,10.50
2022-11-16T04:56:16.765Z,10.50
2022-11-16T04:57:18.417Z,10.60
2022-11-16T04:58:20.026Z,10.60
2022-11-16T04:59:21.675Z,10.50
2022-11-16T05:00:23.998Z,10.50
2022-11-16T05:01:45.712Z,10.40
2022-11-16T05:02:47.367Z,10.40
2022-11-16T05:03:48.986Z,10.40
2022-11-16T05:04:50.564Z,10.40
2022-11-16T05:05:52.184Z,10.40
2022-11-16T05:06:53.976Z,10.40
2022-11-16T05:07:55.859Z,10.40
2022-11-16T05:08:57.436Z,10.40
2022-11-16T05:09:59.109Z,10.40
2022-11-16T05:11:00.717Z,10.40
2022-11-16T05:12:02.441Z,10.30
2022-11-16T05:13:04.057Z,10.30
2022-11-16T05:14:06.205Z,10.30
2022-11-16T05:15:08.547Z,10.30
2022-11-16T05:16:10.145Z,10.30
2022-11-16T05:17:12.878Z,10.30
2022-11-16T05:18:14.504Z,10.30
2022-11-16T05:19:34.705Z,10.20
2022-11-16T05:20:55.004Z,10.30
2022-11-16T05:21:56.598Z,10.30
2022-11-16T05:22:59.180Z,10.30
2022-11-16T05:24:27.222Z,10.30
2022-11-16T05:25:33.847Z,10.40
2022-11-16T05:26:38.624Z,10.40
2022-11-16T05:27:40.280Z,10.40
2022-11-16T05:28:42.079Z,10.50
2022-11-16T05:29:44.610Z,10.50
2022-11-16T05:30:46.225Z,10.40
2022-11-16T05:31:47.822Z,10.30
2022-11-16T05:32:49.414Z,10.30
2022-11-16T05:33:51.034Z,10.30
2022-11-16T05:34:52.726Z,10.20
2022-11-16T05:35:54.446Z,10.20
2022-11-16T05:36:56.610Z,10.20
2022-11-16T05:37:58.180Z,10.20
2022-11-16T05:38:59.800Z,10.30
2022-11-16T05:40:01.512Z,10.40
2022-11-16T05:41:03.098Z,10.40
2022-11-16T05:42:05.543Z,10.40
2022-11-16T05:43:07.178Z,10.40
2022-11-16T05:44:08.779Z,10.40
2022-11-16T05:45:10.677Z,10.40
2022-11-16T05:46:12.264Z,10.40
2022-11-16T05:47:14.067Z,10.30
2022-11-16T05:48:15.703Z,10.40
2022-11-16T05:49:17.899Z,10.40
2022-11-16T05:50:19.570Z,10.40
2022-11-16T05:51:21.435Z,10.30
2022-11-16T05:52:23.074Z,10.30
2022-11-16T05:53:24.839Z,10.20
2022-11-16T05:54:26.525Z,10.20
2022-11-16T05:55:28.128Z,10.20
2022-11-16T05:56:30.921Z,10.20
2022-11-16T05:57:32.556Z,10.20
2022-11-16T05:58:34.420Z,10.20
2022-11-16T05:59:36.365Z,10.30
2022-11-16T06:00:37.949Z,10.20
2022-11-16T06:01:40.051Z,10.30
2022-11-16T06:02:42.035Z,10.30
2022-11-16T06:03:43.681Z,10.20
2022-11-16T06:04:45.303Z,10.30
2022-11-16T06:05:46.916Z,10.30
2022-11-16T06:06:48.575Z,10.30
2022-11-16T06:07:50.204Z,10.30
2022-11-16T06:08:51.848Z,10.40
2022-11-16T06:09:53.508Z,10.40
2022-11-16T06:10:55.191Z,10.40
2022-11-16T06:11:56.836Z,10.40
2022-11-16T06:12:58.426Z,10.40
2022-11-16T06:14:00.074Z,10.40
2022-11-16T06:15:01.682Z,10.40
2022-11-16T06:16:04.598Z,10.40
2022-11-16T06:17:06.372Z,10.40
2022-11-16T06:18:08.604Z,10.40
2022-11-16T06:19:10.235Z,10.30
2022-11-16T06:20:12.211Z,10.30
2022-11-16T06:21:16.685Z,10.30
2022-11-16T06:22:18.263Z,10.30
2022-11-16T06:23:20.031Z,10.20
2022-11-16T06:24:21.945Z,10.20
2022-11-16T06:25:23.569Z,10.20
2022-11-16T06:26:25.169Z,10.30
2022-11-16T06:27:26.760Z,10.20
2022-11-16T06:28:28.633Z,10.20
2022-11-16T06:29:30.259Z,10.20
2022-11-16T06:30:32.046Z,10.10
2022-11-16T06:31:33.690Z,10.20
2022-11-16T06:32:35.311Z,10.10
2022-11-16T06:33:37.047Z,10.10
2022-11-16T06:34:38.635Z,10.10
2022-11-16T06:35:40.281Z,10.00
2022-11-16T06:36:42.003Z,10.10
2022-11-16T06:37:43.738Z,10.10
2022-11-16T06:38:45.410Z,10.10
2022-11-16T06:39:46.986Z,10.10
2022-11-16T06:40:53.263Z,10.10
2022-11-16T06:41:54.917Z,10.10
2022-11-16T06:42:57.237Z,10.10
2022-11-16T06:43:58.867Z,10.10
2022-11-16T06:45:00.437Z,10.10
2022-11-16T06:46:02.104Z,10.20
2022-11-16T06:47:03.751Z,10.20
2022-11-16T06:48:05.387Z,10.20
2022-11-16T06:49:07.032Z,10.10
2022-11-16T06:50:09.431Z,10.20
2022-11-16T06:51:11.226Z,10.10
2022-11-16T06:52:12.951Z,10.20
2022-11-16T06:53:14.558Z,10.20
2022-11-16T06:54:16.192Z,10.20
2022-11-16T06:55:17.861Z,10.20
2022-11-16T06:56:19.558Z,10.20
2022-11-16T06:57:21.147Z,10.20
2022-11-16T06:58:22.817Z,10.20
2022-11-16T06:59:24.468Z,10.30
2022-11-16T07:00:26.115Z,10.20
2022-11-16T07:01:27.806Z,10.30
2022-11-16T07:02:29.419Z,10.30
2022-11-16T07:03:32.017Z,10.30
2022-11-16T07:04:33.644Z,10.40
2022-11-16T07:05:38.780Z,10.40
2022-11-16T07:06:40.820Z,10.40
2022-11-16T07:07:42.432Z,10.40
2022-11-16T07:08:44.125Z,10.30
2022-11-16T07:09:45.709Z,10.20
2022-11-16T07:10:47.330Z,10.20
2022-11-16T07:11:49.019Z,10.20
2022-11-16T07:12:50.655Z,10.20
2022-11-16T07:13:52.379Z,10.20
2022-11-16T07:14:53.982Z,10.20
2022-11-16T07:16:01.195Z,10.20
2022-11-16T07:17:08.078Z,10.20
2022-11-16T07:18:11.014Z,10.20
2022-11-16T07:19:12.773Z,10.20
2022-11-16T07:20:14.361Z,10.20
2022-11-16T07:21:17.226Z,10.20
2022-11-16T07:22:18.830Z,10.20
2022-11-16T07:23:20.694Z,10.20
2022-11-16T07:24:22.290Z,10.10
2022-11-16T07:25:23.867Z,10.10
2022-11-16T07:26:25.461Z,10.10
2022-11-16T07:27:27.078Z,10.10
2022-11-16T07:28:29.866Z,10.20
2022-11-16T07:29:31.537Z,10.10
2022-11-16T07:30:33.131Z,10.10
2022-11-16T07:31:34.742Z,10.20
2022-11-16T07:32:39.735Z,10.20
2022-11-16T07:33:41.432Z,10.10
2022-11-16T07:34:42.999Z,10.10
2022-11-16T07:35:44.584Z,10.10
2022-11-16T07:36:46.423Z,10.10
2022-11-16T07:37:48.033Z,10.10
2022-11-16T07:38:49.614Z,10.10
2022-11-16T07:39:51.271Z,10.10
2022-11-16T07:40:52.878Z,10.10
2022-11-16T07:41:54.550Z,10.10
2022-11-16T07:42:58.421Z,10.10
2022-11-16T07:44:01.030Z,10.10
2022-11-16T07:45:02.638Z,10.10
2022-11-16T07:46:44.825Z,10.20
2022-11-16T07:47:35.930Z,10.10
2022-11-16T07:48:37.548Z,10.20
2022-11-16T07:49:39.440Z,10.10
2022-11-16T07:50:41.045Z,10.10
2022-11-16T07:51:43.260Z,10.10
2022-11-16T07:52:47.777Z,10.10
2022-11-16T07:53:53.467Z,10.10
2022-11-16T07:54:55.049Z,10.00
2022-11-16T07:55:57.380Z,10.10
2022-11-16T07:56:58.949Z,10.00
2022-11-16T07:58:00.914Z,10.00
2022-11-16T07:59:02.721Z,10.00
2022-11-16T08:00:06.005Z,10.00
2022-11-16T08:01:11.230Z,10.10
2022-11-16T08:02:12.832Z,10.10
2022-11-16T08:03:16.503Z,10.10
2022-11-16T08:04:21.051Z,10.10
2022-11-16T08:05:22.646Z,10.10
2022-11-16T08:06:27.166Z,10.10
2022-11-16T08:07:28.791Z,10.10
2022-11-16T08:08:31.214Z,10.20
2022-11-16T08:09:34.701Z,10.10
2022-11-16T08:10:36.604Z,10.10
2022-11-16T08:11:38.245Z,10.10
2022-11-16T08:12:39.842Z,10.20
2022-11-16T08:13:42.093Z,10.20
2022-11-16T08:14:43.770Z,10.20
2022-11-16T08:15:45.366Z,10.20
2022-11-16T08:16:46.990Z,10.20
2022-11-16T08:17:48.658Z,10.20
2022-11-16T08:18:50.496Z,10.20
2022-11-16T08:19:53.562Z,10.20
2022-11-16T08:20:55.187Z,10.20
2022-11-16T08:21:56.782Z,10.20
2022-11-16T08:23:01.051Z,10.20
2022-11-16T08:24:02.819Z,10.20
2022-11-16T08:25:05.029Z,10.20
2022-11-16T08:26:14.258Z,10.30
2022-11-16T08:27:17.369Z,10.30
2022-11-16T08:28:18.955Z,10.30
2022-11-16T08:29:20.811Z,10.30
2022-11-16T08:30:22.508Z,10.30
2022-11-16T08:31:27.829Z,10.30
2022-11-16T08:32:31.958Z,10.30
2022-11-16T08:33:33.542Z,10.30
2022-11-16T08:34:35.178Z,10.30
2022-11-16T08:35:37.316Z,10.30
2022-11-16T08:36:38.925Z,10.30
2022-11-16T08:37:40.532Z,10.30
2022-11-16T08:38:42.136Z,10.20
2022-11-16T08:39:43.758Z,10.30
2022-11-16T08:40:45.746Z,10.30
2022-11-16T08:41:47.377Z,10.40
2022-11-16T08:42:49.022Z,10.40
2022-11-16T08:43:50.907Z,10.40
2022-11-16T08:44:52.555Z,10.40
2022-11-16T08:45:54.248Z,10.40
2022-11-16T08:46:55.905Z,10.40
2022-11-16T08:48:03.443Z,10.40
2022-11-16T08:49:05.482Z,10.40
2022-11-16T08:50:07.369Z,10.40
2022-11-16T08:51:19.995Z,10.40
2022-11-16T08:52:22.583Z,10.40
2022-11-16T08:53:24.179Z,10.40
2022-11-16T08:54:28.853Z,10.40
2022-11-16T08:55:30.448Z,10.40
2022-11-16T08:56:34.260Z,10.40
2022-11-16T08:57:36.429Z,10.40
2022-11-16T08:58:39.009Z,10.40
2022-11-16T08:59:40.616Z,10.40
2022-11-16T09:00:42.275Z,10.40
2022-11-16T09:01:44.039Z,10.40
2022-11-16T09:02:45.688Z,10.40
2022-11-16T09:03:47.582Z,10.40
2022-11-16T09:04:49.173Z,10.40
2022-11-16T09:05:50.822Z,10.50
2022-11-16T09:06:53.062Z,10.40
2022-11-16T09:07:54.739Z,10.40
2022-11-16T09:08:56.467Z,10.30
2022-11-16T09:09:58.054Z,10.40
2022-11-16T09:10:59.838Z,10.40
2022-11-16T09:12:01.513Z,10.40
2022-11-16T09:13:03.661Z,10.40
2022-11-16T09:14:05.288Z,10.50
2022-11-16T09:15:07.392Z,10.40
2022-11-16T09:16:09.193Z,10.40
2022-11-16T09:17:11.066Z,10.40
2022-11-16T09:18:12.657Z,10.40
2022-11-16T09:19:14.342Z,10.50
2022-11-16T09:20:16.073Z,10.50
2022-11-16T09:21:26.139Z,10.50
2022-11-16T09:22:27.788Z,10.50
2022-11-16T09:23:29.403Z,10.50
2022-11-16T09:24:31.366Z,10.60
2022-11-16T09:25:32.987Z,10.60
2022-11-16T09:26:34.579Z,10.60
2022-11-16T09:27:36.361Z,10.60
2022-11-16T09:28:38.140Z,10.60
2022-11-16T09:29:39.737Z,10.60
2022-11-16T09:30:42.261Z,10.60
2022-11-16T09:31:43.902Z,10.60
2022-11-16T09:32:45.521Z,10.60
2022-11-16T09:33:47.706Z,10.60
2022-11-16T09:34:49.332Z,10.60
2022-11-16T09:35:50.920Z,10.60
2022-11-16T09:36:52.592Z,10.60
2022-11-16T09:37:54.404Z,10.70
2022-11-16T09:39:25.829Z,10.70
2022-11-16T09:40:18.145Z,10.60
2022-11-16T09:41:44.069Z,10.70
2022-11-16T09:43:10.257Z,10.70
2022-11-16T09:44:38.268Z,10.70
2022-11-16T09:45:51.592Z,10.70
2022-11-16T09:46:57.343Z,10.70
2022-11-16T09:48:02.784Z,10.70
2022-11-16T09:49:17.433Z,10.70
2022-11-16T09:50:27.114Z,10.70
2022-11-16T09:51:33.566Z,10.70
2022-11-16T09:52:44.709Z,10.80
2022-11-16T09:53:55.533Z,10.80
2022-11-16T09:55:01.839Z,10.80
2022-11-16T09:56:14.513Z,10.80
2022-11-16T09:57:28.165Z,10.80
2022-11-16T09:58:40.644Z,10.80
2022-11-16T09:59:47.767Z,10.70
2022-11-16T10:00:57.332Z,10.80
2022-11-16T10:02:29.532Z,10.80
2022-11-16T10:03:38.252Z,10.90
2022-11-16T10:05:10.599Z,10.90
2022-11-16T10:06:27.595Z,10.90
2022-11-16T10:07:38.563Z,10.90
2022-11-16T10:08:51.271Z,11.00
2022-11-16T10:09:53.722Z,11.00
2022-11-16T10:11:23.264Z,11.00
2022-11-16T10:12:46.218Z,11.00
2022-11-16T10:14:16.496Z,11.00
2022-11-16T10:15:44.361Z,11.00
2022-11-16T10:17:08.223Z,11.00
2022-11-16T10:18:33.970Z,11.10
2022-11-16T10:19:56.070Z,11.20
2022-11-16T10:21:22.504Z,11.20
2022-11-16T10:22:46.431Z,11.20
2022-11-16T10:24:09.293Z,11.20
2022-11-16T10:25:21.831Z,11.20
2022-11-16T10:26:27.924Z,11.20
2022-11-16T10:28:15.423Z,11.20
2022-11-16T10:29:55.134Z,11.20
2022-11-16T10:31:22.671Z,11.20
2022-11-16T10:32:34.527Z,11.10
2022-11-16T10:33:38.441Z,11.20
2022-11-16T10:34:51.384Z,11.20
2022-11-16T10:35:56.924Z,11.20
2022-11-16T10:37:07.664Z,11.20
2022-11-16T10:38:20.085Z,11.20
2022-11-16T10:39:22.251Z,11.20
2022-11-16T10:40:37.120Z,11.20
2022-11-16T10:41:46.045Z,11.20
2022-11-16T10:42:58.802Z,11.20
2022-11-16T10:44:00.845Z,11.20
2022-11-16T10:45:09.790Z,11.20
2022-11-16T10:46:14.309Z,11.20
2022-11-16T10:47:33.612Z,11.10
2022-11-16T10:48:59.268Z,11.10
2022-11-16T10:50:40.749Z,11.10
2022-11-16T10:51:43.063Z,11.20
2022-11-16T10:52:44.676Z,11.20
2022-11-16T10:53:46.765Z,11.20
2022-11-16T10:54:48.356Z,11.20
2022-11-16T10:56:13.143Z,11.30
2022-11-16T10:57:14.882Z,11.30
2022-11-16T10:58:16.576Z,11.20
2022-11-16T10:59:21.709Z,11.20
2022-11-16T11:00:43.733Z,11.20
2022-11-16T11:01:57.412Z,11.20
2022-11-16T11:02:59.057Z,11.20
2022-11-16T11:04:24.431Z,11.20
2022-11-16T11:05:26.895Z,11.30
2022-11-16T11:06:28.569Z,11.30
2022-11-16T11:07:33.009Z,11.30
2022-11-16T11:08:34.718Z,11.30
2022-11-16T11:09:37.983Z,11.30
2022-11-16T11:10:41.874Z,11.30
2022-11-16T11:12:36.070Z,11.20
2022-11-16T11:13:37.940Z,11.20
2022-11-16T11:14:39.562Z,11.10
2022-11-16T11:15:43.015Z,11.10
2022-11-16T11:16:44.642Z,11.10
2022-11-16T11:17:48.129Z,11.10
2022-11-16T11:18:51.325Z,11.10
2022-11-16T11:20:02.051Z,11.10
2022-11-16T11:21:15.427Z,11.20
2022-11-16T11:22:17.031Z,11.20
2022-11-16T11:23:21.819Z,11.20
2022-11-16T11:24:52.250Z,11.20
2022-11-16T11:26:03.700Z,11.20
2022-11-16T11:27:05.767Z,11.20
2022-11-16T11:28:10.527Z,11.20
2022-11-16T11:29:26.248Z,11.20
2022-11-16T11:30:28.478Z,11.20
2022-11-16T11:31:38.205Z,11.10
2022-11-16T11:32:40.447Z,11.10
2022-11-16T11:33:58.098Z,11.10
2022-11-16T11:35:01.019Z,11.10
2022-11-16T11:36:30.703Z,11.10
2022-11-16T11:37:38.214Z,11.10
2022-11-16T11:39:21.016Z,11.10
2022-11-16T11:40:26.997Z,11.10
2022-11-16T11:41:34.421Z,11.10
2022-11-16T11:42:41.511Z,11.00
2022-11-16T11:43:43.097Z,11.00
2022-11-16T11:45:01.686Z,11.00
2022-11-16T11:46:18.372Z,11.00
2022-11-16T11:47:57.781Z,10.90
2022-11-16T11:49:11.866Z,10.90
2022-11-16T11:50:16.694Z,10.90
2022-11-16T11:51:27.430Z,10.90
2022-11-16T11:52:50.203Z,10.90
2022-11-16T11:53:57.662Z,10.90
2022-11-16T11:55:02.275Z,10.90
2022-11-16T11:56:04.105Z,11.00
2022-11-16T11:57:15.507Z,11.00
2022-11-16T11:58:19.682Z,11.00
2022-11-16T11:59:25.099Z,11.10
2022-11-16T12:00:26.824Z,11.20
2022-11-16T12:01:55.779Z,11.20
2022-11-16T12:03:19.183Z,11.30
2022-11-16T12:04:48.547Z,11.30
2022-11-16T12:06:19.301Z,11.30
2022-11-16T12:07:40.018Z,11.20
2022-11-16T12:09:19.023Z,11.30
2022-11-16T12:10:35.002Z,11.30
2022-11-16T12:12:03.035Z,11.30
2022-11-16T12:13:31.350Z,11.30
2022-11-16T12:14:49.375Z,11.30
2022-11-16T12:16:18.305Z,11.30
2022-11-16T12:17:55.401Z,11.40
2022-11-16T12:19:14.667Z,11.50
2022-11-16T12:20:22.719Z,11.50
2022-11-16T12:21:57.639Z,11.40
2022-11-16T12:23:24.382Z,11.50
2022-11-16T12:24:47.234Z,11.50
2022-11-16T12:26:05.359Z,11.50
2022-11-16T12:27:18.595Z,11.40
2022-11-16T12:28:41.284Z,11.50
2022-11-16T12:30:07.457Z,11.50
2022-11-16T12:31:41.536Z,11.50
2022-11-16T12:32:54.056Z,11.60
2022-11-16T12:34:07.419Z,11.50
2022-11-16T12:35:29.581Z,11.60
2022-11-16T12:37:09.029Z,11.60
2022-11-16T12:38:55.458Z,11.50
2022-11-16T12:40:36.432Z,11.60
2022-11-16T12:41:55.500Z,11.50
2022-11-16T12:43:12.438Z,11.50
2022-11-16T12:44:30.281Z,11.60
2022-11-16T12:46:12.415Z,11.60
2022-11-16T12:47:30.570Z,11.50
2022-11-16T12:48:41.727Z,11.50
2022-11-16T12:50:04.511Z,11.60
2022-11-16T12:51:39.551Z,11.60
2022-11-16T12:52:56.272Z,11.60
2022-11-16T12:55:18.694Z,11.60
2022-11-16T12:56:15.958Z,11.70
2022-11-16T12:57:17.521Z,11.70
2022-11-16T12:58:46.547Z,11.70
2022-11-16T13:00:10.404Z,11.70
2022-11-16T13:01:22.035Z,11.70
2022-11-16T13:02:43.271Z,11.70
2022-11-16T13:04:09.528Z,11.70
2022-11-16T13:05:20.172Z,11.70
2022-11-16T13:06:32.637Z,11.70
2022-11-16T13:07:44.341Z,11.70
2022-11-16T13:09:12.924Z,11.70
2022-11-16T13:10:29.213Z,11.70
2022-11-16T13:11:37.219Z,11.70
2022-11-16T13:12:39.430Z,11.70
2022-11-16T13:13:45.710Z,11.70
2022-11-16T13:14:56.009Z,11.70
2022-11-16T13:16:01.943Z,11.70
2022-11-16T13:17:05.538Z,11.70
2022-11-16T13:18:14.348Z,11.80
2022-11-16T13:19:17.986Z,11.90
2022-11-16T13:20:47.321Z,12.00
2022-11-16T13:22:03.427Z,12.20
2022-11-16T13:23:11.404Z,12.50
2022-11-16T13:24:40.375Z,12.70
2022-11-16T13:25:50.701Z,12.90
2022-11-16T13:27:30.253Z,13.10
2022-11-16T13:29:00.885Z,13.10
2022-11-16T13:30:21.233Z,13.20
2022-11-16T13:31:29.168Z,13.30
2022-11-16T13:32:56.996Z,13.40
2022-11-16T13:34:06.243Z,13.50
2022-11-16T13:35:15.458Z,13.60
2022-11-16T13:36:31.881Z,13.70
2022-11-16T13:37:39.582Z,13.90
2022-11-16T13:38:53.055Z,13.90
2022-11-16T13:39:57.530Z,13.90
2022-11-16T13:41:34.781Z,13.90
2022-11-16T13:42:43.725Z,13.90
2022-11-16T13:43:49.687Z,13.80
2022-11-16T13:44:52.105Z,13.80
2022-11-16T13:45:59.224Z,13.70
2022-11-16T13:47:04.783Z,13.50
2022-11-16T13:48:19.632Z,13.50
2022-11-16T13:49:31.761Z,13.30
2022-11-16T13:51:39.313Z,13.20
2022-11-16T13:53:23.464Z,13.20
2022-11-16T13:55:29.974Z,13.10
2022-11-16T13:56:48.131Z,13.00
2022-11-16T13:57:55.259Z,13.00
2022-11-16T13:58:58.222Z,13.00
2022-11-16T14:00:02.910Z,13.00
2022-11-16T14:01:16.095Z,13.00
2022-11-16T14:02:37.703Z,13.00
2022-11-16T14:03:41.415Z,13.00
2022-11-16T14:04:59.733Z,13.00
2022-11-16T14:06:01.345Z,12.90
2022-11-16T14:07:03.137Z,12.90
2022-11-16T14:08:40.096Z,12.80
2022-11-16T14:09:47.730Z,12.80
2022-11-16T14:10:50.013Z,12.80
2022-11-16T14:11:51.628Z,12.80
2022-11-16T14:12:54.574Z,12.80
2022-11-16T14:13:56.671Z,12.80
2022-11-16T14:15:18.898Z,12.80
2022-11-16T14:16:21.399Z,12.70
2022-11-16T14:17:57.083Z,12.70
2022-11-16T14:19:01.531Z,12.70
2022-11-16T14:20:04.613Z,12.60
2022-11-16T14:21:10.487Z,12.60
2022-11-16T14:22:21.202Z,12.60
2022-11-16T14:23:49.077Z,12.60
2022-11-16T14:24:58.180Z,12.60
2022-11-16T14:26:02.549Z,12.60
2022-11-16T14:27:18.828Z,12.50
2022-11-16T14:28:54.125Z,12.40
2022-11-16T14:30:10.000Z,12.30
2022-11-16T14:31:23.665Z,12.20
2022-11-16T14:32:46.730Z,12.20
2022-11-16T14:33:54.443Z,12.20
2022-11-16T14:34:58.713Z,12.10
2022-11-16T14:36:03.339Z,12.10
2022-11-16T14:37:05.366Z,12.10
2022-11-16T14:38:28.861Z,12.00
2022-11-16T14:39:37.562Z,12.00
2022-11-16T14:40:57.833Z,11.90